Owensboro-Daviess County Regional (OWB)

 

Airport Diagram
Current Weather/Forecast (VFR Conditions)
METAR KOWB 091356Z 21017G26KT 10SM -RA OVC037 18/16 A2968 RMK AO2 PK WND 22032/1334 LTG DSNT NE AND SW TSB24E54RAB32 SLP052 P0000 T01830161
TAF KOWB 091331Z 0914/1012 21018G35KT 6SM SHRA VCTS BKN040CB WS020/21050KT TEMPO 0914/0915 1SM -TSRA OVC030CB FM091500 22018KT 2SM SHRA BR VCTS OVC020CB FM091600 21017G27KT 2SM SHRA BR VCTS OVC015CB FM091800 21018G29KT P6SM VCTS OVC011CB FM091900 22016G27KT 3SM SHRA BR VCTS OVC009CB FM100000 34013G23KT P6SM OVC006 FM100800 02008KT P6SM BKN011

Airport Information

All Charts
General
Chart Name View
AIRPORT DIAGRAM
TAKEOFF MINIMUMS
ALTERNATE MINIMUMS
HOT SPOT

Approaches
Chart Name Download
ILS OR LOC RWY 36
RNAV (GPS) RWY 06
RNAV (GPS) RWY 18
RNAV (GPS) RWY 24
RNAV (GPS) RWY 36
VOR RWY 06
VOR RWY 18
VOR RWY 36


Airport Statistics
Departures Arrivals Local
All Collected Stats since June 2016: 49 47 0
2021 Stats: 11 9 0
May Stats: 1 0 0

Inbound Traffic (Arrivals) - 0

No inbound traffic.


Outbound Traffic (Departures) - 0

No outbound traffic.


Local Traffic (Pattern) - 0

No local traffic.